Time;durP1;ratioP1;P1;durP2;ratioP2;P2;SDS_P1;SDS_P2;PMS_P1;PMS_P2;Temp;Humidity;BMP_temperature;BMP_pressure;BME280_temperature;BME280_humidity;BME280_pressure;Samples;Min_cycle;Max_cycle;Signal;HPM_P1;HPM_P2
2023/07/15 00:01:37;;;;;;;6.10;4.97;;;20.90;93.60;;;;;;5010748;28;20528;-66
2023/07/15 00:04:13;;;;;;;4.80;4.30;;;20.80;94.00;;;;;;5010423;28;20454;-68
2023/07/15 00:06:44;;;;;;;6.00;5.50;;;20.80;94.90;;;;;;5009961;28;20500;-65
2023/07/15 00:09:12;;;;;;;5.97;5.40;;;20.60;94.90;;;;;;5013668;28;20505;-67
2023/07/15 00:11:42;;;;;;;6.07;4.83;;;20.60;95.00;;;;;;5021929;28;20473;-68
2023/07/15 00:14:16;;;;;;;5.73;5.07;;;20.60;95.30;;;;;;5029894;28;20437;-68
2023/07/15 00:16:44;;;;;;;5.10;4.60;;;20.50;95.30;;;;;;5029853;28;20516;-68
2023/07/15 00:19:12;;;;;;;5.27;4.47;;;20.50;95.40;;;;;;5029811;28;20461;-67
2023/07/15 00:21:40;;;;;;;5.63;5.10;;;20.30;96.00;;;;;;5023365;28;20446;-67
2023/07/15 00:24:09;;;;;;;6.90;4.77;;;20.40;96.20;;;;;;4989969;28;20912;-67
2023/07/15 00:26:39;;;;;;;6.27;4.97;;;20.50;95.60;;;;;;4990733;28;20439;-66
2023/07/15 00:29:08;;;;;;;5.40;4.90;;;20.50;96.10;;;;;;4990326;28;20458;-66
2023/07/15 00:31:36;;;;;;;5.10;4.70;;;20.50;95.60;;;;;;4990384;28;21004;-65
2023/07/15 00:34:05;;;;;;;6.53;4.77;;;20.50;96.10;;;;;;4999676;28;20832;-66
2023/07/15 00:36:34;;;;;;;5.20;4.80;;;20.50;96.60;;;;;;5009498;28;20466;-66
2023/07/15 00:39:04;;;;;;;5.57;4.57;;;20.40;96.70;;;;;;5011617;28;20991;-66
2023/07/15 00:41:35;;;;;;;5.40;4.70;;;20.30;96.90;;;;;;5016060;28;20835;-66
2023/07/15 00:44:05;;;;;;;5.97;5.00;;;20.20;97.90;;;;;;5008185;28;20559;-67
2023/07/15 00:47:03;;;;;;;6.50;5.17;;;20.00;98.50;;;;;;5008750;28;20955;-66
2023/07/15 00:49:34;;;;;;;5.80;4.90;;;20.10;98.80;;;;;;5009918;28;20469;-67
2023/07/15 00:52:08;;;;;;;5.60;5.10;;;20.10;98.30;;;;;;5008364;28;20453;-67
2023/07/15 00:54:38;;;;;;;7.77;5.00;;;20.10;98.40;;;;;;5008858;28;20545;-68
2023/07/15 00:57:08;;;;;;;6.60;5.17;;;20.10;99.10;;;;;;5007755;28;20477;-67
2023/07/15 00:59:38;;;;;;;5.07;4.50;;;20.20;99.00;;;;;;5009281;28;20465;-68
2023/07/15 01:02:09;;;;;;;6.00;5.40;;;20.20;98.90;;;;;;5007385;28;20828;-68
2023/07/15 01:04:37;;;;;;;7.00;5.10;;;20.30;98.60;;;;;;5009126;28;20452;-68
2023/07/15 01:07:06;;;;;;;5.20;4.80;;;20.30;98.80;;;;;;4991427;28;20466;-69
2023/07/15 01:09:35;;;;;;;6.80;5.33;;;20.30;98.70;;;;;;5006225;28;20477;-67
2023/07/15 01:12:04;;;;;;;5.63;5.13;;;20.30;98.60;;;;;;5016691;28;20456;-68
2023/07/15 01:14:34;;;;;;;5.80;5.27;;;20.30;98.70;;;;;;5027707;28;20483;-67
2023/07/15 01:17:02;;;;;;;6.50;5.17;;;20.20;98.50;;;;;;5008821;28;20841;-67
2023/07/15 01:19:32;;;;;;;5.27;4.87;;;20.20;98.70;;;;;;4999498;28;20475;-68
2023/07/15 01:22:02;;;;;;;6.00;5.50;;;20.20;98.90;;;;;;4993410;28;20446;-67
2023/07/15 01:24:31;;;;;;;5.20;4.70;;;20.00;99.90;;;;;;4993504;28;20447;-68
2023/07/15 01:27:06;;;;;;;6.20;5.60;;;19.80;99.90;;;;;;4994427;28;20451;-69
2023/07/15 01:29:34;;;;;;;5.23;4.80;;;19.70;99.90;;;;;;5012743;28;20464;-69
2023/07/15 01:32:02;;;;;;;5.80;4.63;;;19.60;99.90;;;;;;5013083;28;20444;-68
2023/07/15 01:34:30;;;;;;;6.83;5.37;;;19.50;99.90;;;;;;5012176;28;20442;-68
2023/07/15 01:36:59;;;;;;;6.57;5.97;;;19.40;99.90;;;;;;5010605;28;20473;-69
2023/07/15 01:39:27;;;;;;;7.03;6.37;;;19.30;99.90;;;;;;5006907;28;20493;-67
2023/07/15 01:41:57;;;;;;;6.17;5.57;;;19.30;99.90;;;;;;5024227;28;20472;-67
2023/07/15 01:44:25;;;;;;;8.70;6.13;;;19.10;99.90;;;;;;5020356;28;20450;-67
2023/07/15 01:46:53;;;;;;;8.27;5.80;;;19.00;99.90;;;;;;5012155;28;20504;-66
2023/07/15 01:49:21;;;;;;;6.20;5.57;;;19.10;99.90;;;;;;5012503;28;20548;-66
2023/07/15 01:51:49;;;;;;;5.90;5.40;;;19.10;99.90;;;;;;5003043;28;20451;-66
2023/07/15 01:54:17;;;;;;;6.87;5.40;;;19.00;99.90;;;;;;4992762;28;20983;-66
2023/07/15 01:56:46;;;;;;;5.50;5.07;;;19.00;99.90;;;;;;4992801;28;20478;-68
2023/07/15 01:59:15;;;;;;;6.27;5.17;;;18.90;99.90;;;;;;5022687;28;20542;-67
2023/07/15 02:01:44;;;;;;;7.27;5.67;;;18.90;99.90;;;;;;5005739;28;20447;-67
2023/07/15 02:04:12;;;;;;;5.30;4.77;;;18.90;99.90;;;;;;4991818;28;20934;-66
2023/07/15 02:06:40;;;;;;;6.10;5.50;;;18.80;99.90;;;;;;4993354;28;20865;-67
2023/07/15 02:09:08;;;;;;;5.67;5.17;;;18.90;99.90;;;;;;5001365;28;20503;-66
2023/07/15 02:11:36;;;;;;;4.90;4.50;;;18.80;99.90;;;;;;5024069;28;20473;-66
2023/07/15 02:14:04;;;;;;;6.47;4.93;;;18.80;99.90;;;;;;5031477;28;20451;-66
2023/07/15 02:16:33;;;;;;;6.00;5.37;;;18.70;99.90;;;;;;5012118;28;20477;-67
2023/07/15 02:19:02;;;;;;;5.70;5.17;;;18.70;99.90;;;;;;5010624;28;20493;-67
2023/07/15 02:21:30;;;;;;;4.90;4.50;;;18.70;99.90;;;;;;5011347;28;20916;-68
2023/07/15 02:23:59;;;;;;;5.37;4.93;;;18.70;99.90;;;;;;5009693;28;21109;-66
2023/07/15 02:26:27;;;;;;;5.53;5.03;;;18.50;99.90;;;;;;5010980;28;21002;-66
2023/07/15 02:28:56;;;;;;;5.03;4.53;;;18.40;99.90;;;;;;5010955;28;20466;-68
2023/07/15 02:31:24;;;;;;;5.90;5.37;;;18.30;99.90;;;;;;5011128;28;20800;-67
2023/07/15 02:33:54;;;;;;;5.50;4.80;;;18.40;99.90;;;;;;5011180;28;20948;-66
2023/07/15 02:36:22;;;;;;;6.13;5.63;;;18.40;99.90;;;;;;5011887;28;20504;-67
2023/07/15 02:38:50;;;;;;;6.10;5.50;;;18.30;99.90;;;;;;5011563;28;20841;-67
2023/07/15 02:41:18;;;;;;;6.87;5.07;;;18.20;99.90;;;;;;5022248;28;20446;-67
2023/07/15 02:43:46;;;;;;;5.33;4.83;;;18.20;99.90;;;;;;5031315;28;20444;-66
2023/07/15 02:46:13;;;;;;;5.17;4.70;;;18.20;99.90;;;;;;5031638;28;20495;-67
2023/07/15 02:48:42;;;;;;;4.67;4.10;;;18.20;99.90;;;;;;5031295;28;20563;-68
2023/07/15 02:51:11;;;;;;;5.07;4.60;;;18.20;99.90;;;;;;5010028;28;20538;-68
2023/07/15 02:53:40;;;;;;;8.33;5.37;;;18.20;99.90;;;;;;5010781;28;20928;-67
2023/07/15 02:56:08;;;;;;;5.20;4.70;;;18.20;99.90;;;;;;5008537;28;20478;-67
2023/07/15 02:58:36;;;;;;;5.10;4.67;;;18.10;99.90;;;;;;4997148;28;20478;-67
2023/07/15 03:01:04;;;;;;;5.10;4.60;;;18.10;99.90;;;;;;5007944;28;20478;-67
2023/07/15 03:03:32;;;;;;;5.80;4.87;;;18.00;99.90;;;;;;5010682;28;20442;-67
2023/07/15 03:06:00;;;;;;;5.53;5.03;;;18.00;99.90;;;;;;5011195;28;20536;-69
2023/07/15 03:08:30;;;;;;;5.23;4.67;;;18.00;99.90;;;;;;5009158;28;20865;-67
2023/07/15 03:10:57;;;;;;;5.30;4.90;;;18.10;99.90;;;;;;5009690;28;20442;-67
2023/07/15 03:13:25;;;;;;;6.33;5.73;;;18.10;99.90;;;;;;5010782;28;20430;-69
2023/07/15 03:15:54;;;;;;;6.40;4.23;;;18.10;99.90;;;;;;5010549;28;20804;-67
2023/07/15 03:18:25;;;;;;;5.63;5.13;;;18.00;99.90;;;;;;5010722;28;20469;-66
2023/07/15 03:20:53;;;;;;;4.60;4.20;;;18.00;99.90;;;;;;5010780;28;20542;-67
2023/07/15 03:23:21;;;;;;;4.70;4.30;;;17.90;99.90;;;;;;5010894;28;20803;-67
2023/07/15 03:25:51;;;;;;;4.73;4.33;;;17.80;99.90;;;;;;5010878;28;20454;-66
2023/07/15 03:28:19;;;;;;;7.20;5.50;;;17.80;99.90;;;;;;5010850;28;20521;-68
2023/07/15 03:30:48;;;;;;;6.00;4.60;;;17.80;99.90;;;;;;5001568;28;20443;-67
2023/07/15 03:33:16;;;;;;;5.00;4.50;;;17.90;99.90;;;;;;4990770;28;20533;-67
2023/07/15 03:35:45;;;;;;;5.17;4.77;;;18.00;99.90;;;;;;4990885;28;20989;-67
2023/07/15 03:38:13;;;;;;;4.83;4.53;;;18.00;99.90;;;;;;4991377;28;20564;-66
2023/07/15 03:40:41;;;;;;;5.47;5.07;;;17.90;99.90;;;;;;5016324;28;20476;-67
2023/07/15 03:43:10;;;;;;;5.60;5.10;;;17.80;99.90;;;;;;4990772;28;21133;-67
2023/07/15 03:45:38;;;;;;;6.07;5.57;;;17.80;99.90;;;;;;4990608;28;20530;-68
2023/07/15 03:48:06;;;;;;;5.37;4.97;;;17.80;99.90;;;;;;4990260;28;20955;-68
2023/07/15 03:50:35;;;;;;;5.27;4.83;;;17.80;99.90;;;;;;4991310;28;20502;-67
2023/07/15 03:53:03;;;;;;;6.60;5.43;;;17.80;99.90;;;;;;4990209;28;21162;-66
2023/07/15 03:55:31;;;;;;;5.50;5.00;;;17.70;99.90;;;;;;4991285;28;20534;-66
2023/07/15 03:57:59;;;;;;;5.43;5.03;;;17.60;99.90;;;;;;4991028;28;20893;-66
2023/07/15 04:00:28;;;;;;;5.80;5.17;;;17.80;99.90;;;;;;4990542;28;20463;-68
2023/07/15 04:02:56;;;;;;;5.70;4.70;;;17.80;99.90;;;;;;4990872;28;20453;-67
2023/07/15 04:05:24;;;;;;;4.90;4.50;;;17.90;99.90;;;;;;4990694;28;20454;-67
2023/07/15 04:07:53;;;;;;;6.13;5.20;;;17.90;99.90;;;;;;4990715;28;20856;-67
2023/07/15 04:10:21;;;;;;;5.67;5.17;;;18.00;99.90;;;;;;5013560;28;20807;-67
2023/07/15 04:12:50;;;;;;;5.17;4.67;;;18.00;99.90;;;;;;5026777;28;20524;-67
2023/07/15 04:15:18;;;;;;;5.33;4.83;;;18.00;99.90;;;;;;5030217;28;20441;-67
2023/07/15 04:17:47;;;;;;;5.67;5.20;;;17.90;99.90;;;;;;5029754;28;20515;-67
2023/07/15 04:20:17;;;;;;;5.00;4.50;;;18.00;99.90;;;;;;5029889;28;20457;-67
2023/07/15 04:22:45;;;;;;;5.33;4.83;;;18.20;99.90;;;;;;5012439;28;20446;-68
2023/07/15 04:25:14;;;;;;;5.30;4.67;;;18.20;99.90;;;;;;5009974;28;20477;-69
2023/07/15 04:27:42;;;;;;;5.03;4.63;;;18.30;99.90;;;;;;5009912;28;20437;-67
2023/07/15 04:30:12;;;;;;;4.97;4.40;;;18.30;99.90;;;;;;5010017;28;20461;-67
2023/07/15 04:32:39;;;;;;;5.73;4.30;;;18.30;99.90;;;;;;5009873;28;20457;-69
2023/07/15 04:35:09;;;;;;;5.40;4.47;;;18.40;99.90;;;;;;5010016;28;21025;-68
2023/07/15 04:37:38;;;;;;;5.30;4.30;;;18.60;99.90;;;;;;5004682;28;20553;-68
2023/07/15 04:40:08;;;;;;;4.90;4.50;;;18.60;99.90;;;;;;5009796;28;20462;-68
2023/07/15 04:42:35;;;;;;;4.90;4.50;;;18.60;99.90;;;;;;5024880;28;20496;-66
2023/07/15 04:45:04;;;;;;;7.60;4.83;;;18.70;99.90;;;;;;5026436;28;20553;-66
2023/07/15 04:47:34;;;;;;;5.00;4.50;;;18.80;99.90;;;;;;5008499;28;20481;-66
2023/07/15 04:50:05;;;;;;;4.80;4.30;;;18.90;99.90;;;;;;5009670;28;20466;-66
2023/07/15 04:52:34;;;;;;;5.00;4.50;;;19.00;99.90;;;;;;5009245;28;20477;-66
2023/07/15 04:55:02;;;;;;;5.00;4.60;;;19.00;99.90;;;;;;5009972;28;20446;-66
2023/07/15 04:57:30;;;;;;;7.00;5.10;;;19.00;99.90;;;;;;5013103;28;20477;-66
2023/07/15 04:59:58;;;;;;;4.83;4.43;;;19.00;99.90;;;;;;5013112;28;20470;-66
2023/07/15 05:02:30;;;;;;;5.67;5.00;;;19.10;99.90;;;;;;5013553;28;20476;-66
2023/07/15 05:04:59;;;;;;;4.50;4.10;;;19.10;99.90;;;;;;5013410;28;20480;-67
2023/07/15 05:07:27;;;;;;;5.27;4.77;;;19.20;99.90;;;;;;5013963;28;20438;-66
2023/07/15 05:10:00;;;;;;;4.90;4.40;;;19.20;99.90;;;;;;5020642;28;21208;-68
2023/07/15 05:12:28;;;;;;;5.17;4.77;;;19.30;99.90;;;;;;5018597;28;20430;-66
2023/07/15 05:14:56;;;;;;;4.50;4.20;;;19.40;99.90;;;;;;5013445;28;20445;-66
2023/07/15 05:17:25;;;;;;;4.50;4.10;;;19.50;99.90;;;;;;5012817;28;20481;-67
2023/07/15 05:19:53;;;;;;;4.60;4.20;;;19.60;99.90;;;;;;5013533;28;20461;-66
2023/07/15 05:22:21;;;;;;;4.93;4.53;;;19.80;99.90;;;;;;5013208;28;20541;-67
2023/07/15 05:24:49;;;;;;;4.57;4.23;;;19.90;99.90;;;;;;5012958;28;20936;-66
2023/07/15 05:27:18;;;;;;;4.53;4.07;;;19.90;99.90;;;;;;5003668;28;20455;-66
2023/07/15 05:29:47;;;;;;;4.93;4.50;;;20.00;99.90;;;;;;4993486;28;20526;-66
2023/07/15 05:32:15;;;;;;;5.27;4.77;;;20.00;99.90;;;;;;4993444;28;20454;-68
2023/07/15 05:34:43;;;;;;;4.50;4.17;;;20.10;99.90;;;;;;4993101;28;20784;-67
2023/07/15 05:37:10;;;;;;;6.40;4.53;;;20.10;99.90;;;;;;4993519;28;20439;-66
2023/07/15 05:39:38;;;;;;;5.40;4.13;;;20.20;99.90;;;;;;5010214;28;20476;-68
2023/07/15 05:42:06;;;;;;;6.00;4.80;;;20.40;99.90;;;;;;5024689;28;20571;-66
2023/07/15 05:44:36;;;;;;;4.83;4.20;;;20.60;99.90;;;;;;5006091;28;20451;-66
2023/07/15 05:47:03;;;;;;;4.53;4.00;;;20.80;99.90;;;;;;4993662;28;20444;-65
2023/07/15 05:49:32;;;;;;;5.40;4.03;;;21.00;99.90;;;;;;4993524;28;20980;-66
2023/07/15 05:51:59;;;;;;;4.27;3.87;;;21.20;99.90;;;;;;5003666;28;20453;-66
2023/07/15 05:54:27;;;;;;;4.17;3.73;;;21.40;99.90;;;;;;5012793;28;20469;-67
2023/07/15 05:56:55;;;;;;;4.17;3.87;;;21.60;99.90;;;;;;5012544;28;20533;-67
2023/07/15 05:59:23;;;;;;;4.60;4.10;;;21.80;99.90;;;;;;5012654;28;20915;-67
2023/07/15 06:01:53;;;;;;;4.47;4.13;;;21.90;99.90;;;;;;5012933;28;20442;-67
2023/07/15 06:04:21;;;;;;;4.63;4.23;;;22.10;99.90;;;;;;5012432;28;20900;-66
2023/07/15 06:06:49;;;;;;;3.90;3.60;;;22.20;99.90;;;;;;5010627;28;20461;-67
2023/07/15 06:09:17;;;;;;;3.93;3.63;;;22.40;99.90;;;;;;5016987;28;20472;-66
2023/07/15 06:11:45;;;;;;;3.90;3.60;;;22.50;99.60;;;;;;5023796;28;20560;-66
2023/07/15 06:14:13;;;;;;;4.27;3.87;;;22.60;98.20;;;;;;5031864;28;20532;-66
2023/07/15 06:16:41;;;;;;;3.97;3.60;;;22.70;97.90;;;;;;5032172;28;20443;-66
2023/07/15 06:19:10;;;;;;;6.87;3.80;;;22.70;97.50;;;;;;5032074;28;20830;-67
2023/07/15 06:21:38;;;;;;;4.17;3.83;;;22.80;96.90;;;;;;5027349;28;20538;-67
2023/07/15 06:24:06;;;;;;;3.70;3.40;;;22.90;96.60;;;;;;5011933;28;20516;-67
2023/07/15 06:26:35;;;;;;;4.80;4.27;;;23.20;95.40;;;;;;5011976;28;20450;-67
2023/07/15 06:29:03;;;;;;;3.60;3.27;;;23.30;95.00;;;;;;5011931;28;20462;-67
2023/07/15 06:31:31;;;;;;;4.07;3.67;;;23.50;93.80;;;;;;5011820;28;20461;-67
2023/07/15 06:33:59;;;;;;;3.80;3.50;;;23.50;94.10;;;;;;5011952;28;20493;-68
2023/07/15 06:36:28;;;;;;;3.80;3.50;;;23.70;93.60;;;;;;5012145;28;20452;-67
2023/07/15 06:38:56;;;;;;;5.03;3.67;;;23.80;93.90;;;;;;5006323;28;20569;-68
2023/07/15 06:41:24;;;;;;;8.23;3.87;;;23.90;92.20;;;;;;5023664;28;20544;-67
2023/07/15 06:43:52;;;;;;;3.60;3.27;;;24.10;91.80;;;;;;5031258;28;20440;-68
2023/07/15 06:46:20;;;;;;;4.00;3.70;;;24.30;90.70;;;;;;5031506;28;21013;-66
2023/07/15 06:48:48;;;;;;;4.63;3.37;;;24.40;90.30;;;;;;5031203;28;20563;-65
2023/07/15 06:51:18;;;;;;;3.77;3.43;;;24.60;87.50;;;;;;5031403;28;20449;-66
2023/07/15 06:53:47;;;;;;;3.33;2.93;;;24.80;87.80;;;;;;5031230;28;20511;-66
2023/07/15 06:56:15;;;;;;;4.20;3.87;;;24.90;86.30;;;;;;4991955;28;20456;-66
2023/07/15 06:58:48;;;;;;;3.60;3.30;;;25.00;86.20;;;;;;4992046;28;20492;-65
2023/07/15 07:01:15;;;;;;;4.13;3.73;;;25.20;83.00;;;;;;4991840;28;20449;-65
2023/07/15 07:03:45;;;;;;;3.50;3.17;;;25.30;84.60;;;;;;4991396;28;20478;-65
2023/07/15 07:06:14;;;;;;;4.00;3.50;;;25.40;81.00;;;;;;4991686;28;20995;-65
2023/07/15 07:08:42;;;;;;;4.70;3.63;;;25.50;82.40;;;;;;4993322;28;20990;-66
2023/07/15 07:11:13;;;;;;;3.60;3.27;;;25.50;83.00;;;;;;5021060;28;20449;-64
2023/07/15 07:13:42;;;;;;;4.90;3.80;;;25.70;80.20;;;;;;5030548;28;20503;-66
2023/07/15 07:16:10;;;;;;;3.70;3.40;;;25.90;78.00;;;;;;5030881;28;20448;-66
2023/07/15 07:18:39;;;;;;;4.07;3.70;;;26.00;78.50;;;;;;5030041;28;20515;-65
2023/07/15 07:21:07;;;;;;;4.30;3.90;;;26.30;77.20;;;;;;5031115;28;20551;-66
2023/07/15 07:23:35;;;;;;;5.60;3.77;;;26.40;76.40;;;;;;5030364;28;20429;-67
2023/07/15 07:26:03;;;;;;;4.10;3.47;;;26.60;76.00;;;;;;5030897;28;20440;-65
2023/07/15 07:28:43;;;;;;;4.53;3.37;;;26.70;74.70;;;;;;5005756;28;20858;-66
2023/07/15 07:31:12;;;;;;;8.33;3.67;;;26.80;74.50;;;;;;4991326;28;20739;-65
2023/07/15 07:33:42;;;;;;;4.80;3.93;;;26.80;73.50;;;;;;4991001;28;20509;-66
2023/07/15 07:36:10;;;;;;;4.43;3.50;;;27.00;73.70;;;;;;4991224;28;20882;-66
2023/07/15 07:38:38;;;;;;;4.77;3.77;;;27.20;73.90;;;;;;4992209;28;20442;-66
2023/07/15 07:41:07;;;;;;;4.03;3.73;;;27.50;70.10;;;;;;5010642;28;20592;-66
2023/07/15 07:43:36;;;;;;;4.10;3.80;;;27.60;69.10;;;;;;5009744;28;20944;-65
2023/07/15 07:46:06;;;;;;;4.43;3.77;;;27.80;68.90;;;;;;4991604;28;20920;-65
2023/07/15 07:48:34;;;;;;;3.77;3.47;;;28.00;68.40;;;;;;4991326;28;20442;-68
2023/07/15 07:51:02;;;;;;;4.30;3.90;;;28.10;67.90;;;;;;4993808;28;20482;-67
2023/07/15 07:53:31;;;;;;;4.50;3.60;;;28.10;68.00;;;;;;5010491;28;20442;-67
2023/07/15 07:55:59;;;;;;;4.70;4.00;;;28.20;67.00;;;;;;5010567;28;20453;-66
2023/07/15 07:58:27;;;;;;;4.10;3.60;;;28.20;66.90;;;;;;5010492;28;20489;-64
2023/07/15 08:00:55;;;;;;;4.23;3.87;;;28.30;66.70;;;;;;5010545;28;20946;-65
2023/07/15 08:03:25;;;;;;;5.87;4.30;;;28.50;68.60;;;;;;5010306;28;20476;-65
2023/07/15 08:05:53;;;;;;;3.60;3.30;;;28.60;67.50;;;;;;5001183;28;20443;-66
2023/07/15 08:08:21;;;;;;;4.43;3.60;;;28.80;63.00;;;;;;4990373;28;20459;-66
2023/07/15 08:10:49;;;;;;;3.73;3.43;;;29.10;60.90;;;;;;5018392;28;20441;-67
2023/07/15 08:13:17;;;;;;;3.70;3.27;;;29.40;61.00;;;;;;5029973;28;20449;-66
2023/07/15 08:15:45;;;;;;;4.23;3.33;;;29.70;58.70;;;;;;5029861;28;20440;-66
2023/07/15 08:18:13;;;;;;;3.63;3.33;;;30.00;58.10;;;;;;5029976;28;20532;-65
2023/07/15 08:20:42;;;;;;;3.87;3.20;;;30.30;57.00;;;;;;5029008;28;20571;-66
2023/07/15 08:23:10;;;;;;;5.60;3.87;;;30.90;55.90;;;;;;5011726;28;20789;-66
2023/07/15 08:25:39;;;;;;;3.70;3.40;;;31.40;55.50;;;;;;5010226;28;20442;-66
2023/07/15 08:28:07;;;;;;;4.50;3.50;;;31.70;52.80;;;;;;5009902;28;20469;-65
2023/07/15 08:30:36;;;;;;;3.80;3.40;;;31.90;51.80;;;;;;5009158;28;20493;-66
2023/07/15 08:33:05;;;;;;;4.37;3.67;;;32.00;52.00;;;;;;5008774;28;20477;-65
2023/07/15 08:35:34;;;;;;;3.80;3.50;;;32.10;51.30;;;;;;5009168;28;20437;-67
2023/07/15 08:38:03;;;;;;;4.13;3.60;;;32.30;51.30;;;;;;5007429;28;20454;-66
2023/07/15 08:40:34;;;;;;;4.17;3.17;;;32.30;49.90;;;;;;5009090;28;20577;-68
2023/07/15 08:43:04;;;;;;;4.00;3.53;;;32.30;49.30;;;;;;5009762;28;20445;-67
2023/07/15 08:45:35;;;;;;;3.73;3.43;;;32.50;49.70;;;;;;4998640;28;20438;-67
2023/07/15 08:48:04;;;;;;;4.57;3.33;;;32.60;48.40;;;;;;4998644;28;20434;-67
2023/07/15 08:50:34;;;;;;;3.57;3.27;;;32.90;47.80;;;;;;5007108;28;20508;-67
2023/07/15 08:53:04;;;;;;;3.90;3.23;;;33.20;47.50;;;;;;5009875;28;20441;-66
2023/07/15 08:55:32;;;;;;;3.90;2.83;;;33.40;47.10;;;;;;5004771;28;21031;-67
2023/07/15 08:58:01;;;;;;;5.57;3.27;;;33.30;44.60;;;;;;4989742;28;20466;-67
2023/07/15 09:00:29;;;;;;;3.37;2.80;;;33.50;45.60;;;;;;4989804;28;20518;-68
2023/07/15 09:02:57;;;;;;;2.73;2.53;;;33.70;44.40;;;;;;4995364;28;20520;-68
2023/07/15 09:05:25;;;;;;;3.50;3.20;;;34.10;44.00;;;;;;5002829;28;20474;-67
2023/07/15 09:07:56;;;;;;;3.30;3.00;;;34.30;41.40;;;;;;5009297;28;20536;-67
2023/07/15 09:10:28;;;;;;;4.80;3.00;;;34.40;41.70;;;;;;5009685;28;20544;-67
2023/07/15 09:12:56;;;;;;;2.70;2.50;;;34.30;40.20;;;;;;5009241;28;20442;-68
2023/07/15 09:15:24;;;;;;;3.30;3.00;;;34.30;41.10;;;;;;5010026;28;20453;-67
2023/07/15 09:17:54;;;;;;;5.03;3.63;;;34.40;41.30;;;;;;5005003;28;20465;-68
2023/07/15 09:20:24;;;;;;;3.30;3.10;;;34.30;41.50;;;;;;5006014;28;20988;-67
2023/07/15 09:22:54;;;;;;;3.83;3.53;;;34.00;41.00;;;;;;5008871;28;20442;-68
2023/07/15 09:25:24;;;;;;;3.00;2.70;;;33.80;42.00;;;;;;5002991;28;20529;-67
2023/07/15 09:27:53;;;;;;;3.80;3.50;;;33.60;41.90;;;;;;5016797;28;20867;-67
2023/07/15 09:30:21;;;;;;;3.47;3.17;;;33.60;42.80;;;;;;5015973;28;20476;-65
2023/07/15 09:32:49;;;;;;;3.60;3.30;;;33.70;44.20;;;;;;5009227;28;20820;-67
2023/07/15 09:35:20;;;;;;;4.47;3.30;;;34.10;43.80;;;;;;5008368;28;20442;-67
2023/07/15 09:37:49;;;;;;;3.00;2.70;;;34.70;40.50;;;;;;4994292;28;20453;-65
2023/07/15 09:40:17;;;;;;;3.13;2.70;;;35.20;38.50;;;;;;4991941;28;20491;-66
2023/07/15 09:42:54;;;;;;;3.37;3.07;;;35.40;39.30;;;;;;5002643;28;20439;-67
2023/07/15 09:45:33;;;;;;;3.33;3.03;;;35.70;39.80;;;;;;4998848;28;20430;-66
2023/07/15 09:48:02;;;;;;;3.33;3.00;;;36.30;37.90;;;;;;4993046;28;20469;-67
2023/07/15 09:50:32;;;;;;;3.73;3.43;;;36.80;38.20;;;;;;4996834;28;20466;-66
2023/07/15 09:53:00;;;;;;;3.23;3.03;;;36.80;35.10;;;;;;4998757;28;20457;-67
2023/07/15 09:55:29;;;;;;;3.17;2.97;;;36.80;36.30;;;;;;5009872;28;20444;-66
2023/07/15 09:58:05;;;;;;;3.30;3.10;;;37.00;34.90;;;;;;4992412;28;20443;-66
2023/07/15 10:00:36;;;;;;;5.23;3.40;;;36.40;34.10;;;;;;4992459;28;21011;-67
2023/07/15 10:03:07;;;;;;;4.50;2.93;;;36.40;34.50;;;;;;5000771;28;20446;-68
2023/07/15 10:05:35;;;;;;;3.23;2.93;;;36.00;35.60;;;;;;5003148;28;20446;-67
2023/07/15 10:08:03;;;;;;;2.80;2.60;;;35.80;35.30;;;;;;5004078;28;20457;-67
2023/07/15 10:10:31;;;;;;;3.30;3.10;;;36.10;35.40;;;;;;5000834;28;20529;-67
2023/07/15 10:13:02;;;;;;;3.77;2.97;;;36.80;34.70;;;;;;4995253;28;20451;-68
2023/07/15 10:15:30;;;;;;;3.47;3.27;;;36.90;34.70;;;;;;4999317;28;20449;-66
2023/07/15 10:18:11;;;;;;;3.10;2.90;;;37.30;33.70;;;;;;4992023;28;20439;-68
2023/07/15 10:20:43;;;;;;;2.80;2.60;;;37.50;34.40;;;;;;4991815;28;20482;-67
2023/07/15 10:23:11;;;;;;;4.13;3.67;;;38.10;32.50;;;;;;4995468;28;21811;-69
2023/07/15 10:25:43;;;;;;;3.60;3.30;;;38.40;32.30;;;;;;5005716;28;20442;-69
2023/07/15 10:28:13;;;;;;;3.20;2.90;;;38.50;32.50;;;;;;5009736;28;20530;-67
2023/07/15 10:31:08;;;;;;;3.40;3.10;;;38.80;35.00;;;;;;5007820;28;20460;-67
2023/07/15 10:33:37;;;;;;;2.97;2.77;;;39.60;31.20;;;;;;4999764;28;20446;-67
2023/07/15 10:36:06;;;;;;;2.60;2.40;;;40.10;30.10;;;;;;5010616;28;20457;-67
2023/07/15 10:38:34;;;;;;;4.33;2.50;;;39.70;30.60;;;;;;5004526;28;20445;-67
2023/07/15 10:41:04;;;;;;;3.30;3.10;;;39.30;30.90;;;;;;5003553;28;20473;-68
2023/07/15 10:43:41;;;;;;;3.07;2.77;;;39.20;30.60;;;;;;5001204;28;20945;-67
2023/07/15 10:46:10;;;;;;;3.57;2.53;;;39.10;33.20;;;;;;5004090;28;20517;-69
2023/07/15 10:48:39;;;;;;;2.90;2.70;;;38.80;31.70;;;;;;5001243;28;20939;-68
2023/07/15 10:51:09;;;;;;;2.80;2.60;;;38.80;31.40;;;;;;5002578;28;20434;-67
2023/07/15 10:53:38;;;;;;;3.27;3.07;;;39.10;31.50;;;;;;5000934;28;20538;-68
2023/07/15 10:56:09;;;;;;;3.47;3.17;;;39.10;30.30;;;;;;5000496;28;20439;-67
2023/07/15 10:58:37;;;;;;;3.13;2.80;;;39.00;32.40;;;;;;5001766;28;20887;-66
2023/07/15 11:01:08;;;;;;;3.33;3.03;;;39.10;31.40;;;;;;5002107;28;20849;-67
2023/07/15 11:03:37;;;;;;;3.30;3.10;;;38.80;30.10;;;;;;5000377;28;20451;-67
2023/07/15 11:06:06;;;;;;;3.20;2.90;;;38.40;31.60;;;;;;5004555;28;20442;-66
2023/07/15 11:08:40;;;;;;;3.00;2.80;;;38.00;33.80;;;;;;5003224;28;20442;-70
2023/07/15 11:11:11;;;;;;;2.70;2.50;;;37.80;33.10;;;;;;5001972;28;20426;-68
2023/07/15 11:13:40;;;;;;;4.03;3.00;;;38.10;31.80;;;;;;5000537;28;20521;-66
2023/07/15 11:16:09;;;;;;;3.27;3.07;;;38.50;30.40;;;;;;5001230;28;20443;-66
2023/07/15 11:18:37;;;;;;;2.87;2.67;;;39.10;33.30;;;;;;5000193;28;20789;-68
2023/07/15 11:21:06;;;;;;;2.90;2.60;;;40.10;28.90;;;;;;5000148;28;20481;-66
2023/07/15 11:23:34;;;;;;;3.83;2.97;;;40.80;29.80;;;;;;5001259;28;20469;-68
2023/07/15 11:26:08;;;;;;;3.03;2.43;;;41.10;30.20;;;;;;5001338;28;20445;-67
2023/07/15 11:28:47;;;;;;;3.60;3.40;;;40.90;28.30;;;;;;4991057;28;20921;-67
2023/07/15 11:31:16;;;;;;;3.10;2.77;;;40.80;29.00;;;;;;4996443;28;20536;-67
2023/07/15 11:33:44;;;;;;;2.57;2.37;;;40.90;29.90;;;;;;4996324;28;20438;-69
2023/07/15 11:36:12;;;;;;;2.80;2.60;;;40.60;28.80;;;;;;4991222;28;20465;-66
2023/07/15 11:38:41;;;;;;;2.80;2.60;;;40.40;28.60;;;;;;4991438;28;21071;-68
2023/07/15 11:41:09;;;;;;;2.70;2.50;;;39.90;28.50;;;;;;4991495;28;20481;-67
2023/07/15 11:43:37;;;;;;;3.73;3.43;;;38.70;29.20;;;;;;5001868;28;20980;-66
2023/07/15 11:46:05;;;;;;;5.97;3.43;;;36.90;34.30;;;;;;5001088;28;20537;-66
2023/07/15 11:48:35;;;;;;;4.43;3.67;;;35.40;35.70;;;;;;5000700;28;20450;-66
2023/07/15 11:51:06;;;;;;;3.93;3.60;;;35.00;37.00;;;;;;5005309;28;20454;-68
2023/07/15 11:53:35;;;;;;;7.20;3.70;;;35.80;37.70;;;;;;5010533;28;20470;-67
2023/07/15 11:56:05;;;;;;;4.03;3.40;;;36.30;36.90;;;;;;4990397;28;20450;-66
2023/07/15 11:58:38;;;;;;;4.57;4.00;;;36.70;36.00;;;;;;4990539;28;20928;-65
2023/07/15 12:01:06;;;;;;;5.30;4.60;;;37.30;35.50;;;;;;4990956;28;20471;-67
2023/07/15 12:03:36;;;;;;;5.33;3.87;;;38.00;35.00;;;;;;4990464;28;20526;-66
2023/07/15 12:06:04;;;;;;;6.07;3.20;;;38.30;33.70;;;;;;4989446;28;20454;-66
2023/07/15 12:08:32;;;;;;;3.10;2.83;;;38.60;32.10;;;;;;4990751;28;20459;-66
2023/07/15 12:11:01;;;;;;;3.30;2.97;;;38.70;31.90;;;;;;4990847;28;20448;-66
2023/07/15 12:13:29;;;;;;;3.90;3.60;;;38.90;31.30;;;;;;4990525;28;20439;-66
2023/07/15 12:15:57;;;;;;;4.07;3.17;;;38.80;30.50;;;;;;4990701;28;20846;-66
2023/07/15 12:18:25;;;;;;;3.10;2.90;;;39.00;31.00;;;;;;4990479;28;20949;-67
2023/07/15 12:20:54;;;;;;;2.93;2.73;;;39.60;29.50;;;;;;4990201;28;20968;-66
2023/07/15 12:23:22;;;;;;;4.87;3.40;;;39.50;31.90;;;;;;4990443;28;20534;-68
2023/07/15 12:25:50;;;;;;;3.33;3.00;;;39.80;29.00;;;;;;4990701;28;20450;-66
2023/07/15 12:28:18;;;;;;;4.07;3.77;;;39.80;29.00;;;;;;4990292;28;20949;-67
2023/07/15 12:30:46;;;;;;;3.87;3.50;;;39.60;29.80;;;;;;4989875;28;20439;-67
2023/07/15 12:33:14;;;;;;;5.13;3.90;;;39.50;30.00;;;;;;4989730;28;20857;-67
2023/07/15 12:35:42;;;;;;;3.93;3.53;;;39.60;31.90;;;;;;4992909;28;20490;-68
2023/07/15 12:38:11;;;;;;;3.73;3.37;;;39.40;31.50;;;;;;5000242;28;20501;-67
2023/07/15 12:40:39;;;;;;;5.07;4.40;;;39.40;31.50;;;;;;5000654;28;20498;-68
2023/07/15 12:43:07;;;;;;;3.60;3.30;;;39.30;31.60;;;;;;4998318;28;21120;-66
2023/07/15 12:45:35;;;;;;;4.00;3.60;;;39.00;32.30;;;;;;5009656;28;20438;-66
2023/07/15 12:48:03;;;;;;;4.83;3.50;;;39.10;31.40;;;;;;5008872;28;20484;-66
2023/07/15 12:50:31;;;;;;;3.77;3.13;;;39.30;31.20;;;;;;5009916;28;20469;-66
2023/07/15 12:52:59;;;;;;;3.37;3.17;;;39.70;30.10;;;;;;5006788;28;20875;-66
2023/07/15 12:55:28;;;;;;;6.27;4.00;;;40.50;31.60;;;;;;5009445;28;20433;-66
2023/07/15 12:57:56;;;;;;;4.33;3.30;;;41.20;29.40;;;;;;5009136;28;20450;-67